Winamac, IN (46996)

6:05 PM EST on February 09, 2016 (GMT -0500)
East of Town | | Change Station
CLOSE
Current Station
Personal Weather Station
Location: North Judson, IN
Elevation: 700 ft
Nearby Weather Stations

Elev 700 ft 41.24 °N, 86.72 °W | Updated 5 seconds ago

Overcast
Overcast
18.5 °F
Feels Like 9 °F
N
7.0
Wind Variable Wind from West
Gusts 14.0 mph

Today
High -- | Low -- °F
--% Chance of Precip.
Yesterday
High -- | Low -- °F
Precip. -- in
Pressure 29.87 in
Visibility 4.0 miles
Clouds Overcast 3900 ft
Windchill 9 °F
Dew Point 14 °F
Humidity 84%
Rainfall 0.00 in
Snow Depth Not available.
7:49 AM 6:12 PM
New Moon, 2% visible
METAR KOXI 092255Z AUTO 30014G17KT 4SM OVC039 M07/M10 A2987 RMK AO1
Pressure 29.87 in
Visibility 4.0 miles
Clouds Overcast 3900 ft
Windchill 9 °F
Dew Point 14 °F
Humidity 84%
Rainfall 0.00 in
Snow Depth Not available.
7:49 AM 6:12 PM
New Moon, 2% visible
METAR KOXI 092255Z AUTO 30014G17KT 4SM OVC039 M07/M10 A2987 RMK AO1

10-Day Weather Forecast

Almanac

Astronomy

Feb. 09, 2016 Rise Set
Actual Time
Civil Twilight
Nautical Twilight
Astronomical Twilight
Moon
Length of Visible Light
Length of Day
Tomorrow will be .
, % of the Moon is Illuminated

Today's Extremes

State Highs State Lows

Community

WunderPhotos

Upload Photos

1,891,728 photos uploaded!

WunderBlog® & News

Nearby

Air Quality

  Air Quality AQ Index Pollutant
Not available.

Snow Depth

Station Depth Elevation

Earthquake Activity

City Distance Mag. Time & Date
Minimum magnitude displayed is 2.5.

Coastal Water Temperatures

Place Temperature

Stations

Nearby Weather Stations

Station Location Temp. Windchill Dew Point Humidity Wind Precip. Elev Updated Type
                   

Watches & Warnings

There are currently no watches in effect.